Benghazi/Benina, Libya
Current Conditions -  °F | °C
As of 10:20 PM on Tuesday 21 Oct 2014 (Local Time) from LGSA Reporting Station
Few Clouds Few Clouds  
Wind Chill: 61°   Ceiling: Unl
Heat Index: 61°   Visibility: 6mi
Dew Point: 52°   Wind: 0mph
Humidity: 72%   Direction: NA
Pressure: 29.94"   Gusts: NA
Location:  32.08°N, 20.27°E
Report Text: LGSA 211920Z 00000KT 9999 FEW025 16/11 Q1014
Loading
Personal Weather Stations






























Interactive Weather Map
Tropical Storm Tracking
New forecast layout! Learn more

10-Day Weather Forecast

Advertisements
Track Severe Weather on mobile